Fort Benning, GA

12:33 PM EDT en Julio 02, 2015 (GMT -0400)
APRSWXNET | | Change Station
CLOSE
Current Station
Estación meteorológica personal
Location: Phenix City, AL
Altura: 282 ft
Estaciones meteorológicas cercanas

Alt 282 ft 32.44 °N, 85.02 °W | Updated 24 minutes ago

Muy nublado
Muy nublado
85 ° F
Sensación térmica 96 ° F
N
5
Viento Variable Viento desde OSO
Gusts 9.0 mph

Hoy
Alta -- | Baja -- ° F
--% Posibilidad de precipitaciones
Ayer
Alta -- | Baja -- ° F
Precip. -- pul
6:36 AM 8:50 PM
Luna llena, 100% visible
Presión 30.05 pul
Visibilidad 10.0 Millas
Nubes Nubes dispersas 2300 ft
Muy nublado 3100 ft
Muy nublado 3800 ft
Índice de calor 96 ° F
Punto de rocío 77 ° F
Humedad 77%
Precipitaciones pul
Espesor de la nieve No disponible.
UV 7 de una escala de 12
Polen 1.00 de una escala de 12
Calidad del aire No disponible.
Flu Activity No disponible.
SPECI KCSG 021618Z 28007KT 10SM SCT023 BKN031 BKN038 29/22 A3005 RMK AO2

More Conditions Fewer Conditions

Presión 30.05 pul
Visibilidad 10.0 Millas
Nubes Nubes dispersas 2300 ft
Muy nublado 3100 ft
Muy nublado 3800 ft
Índice de calor 96 ° F
Punto de rocío 77 ° F
Humedad 77%
Precipitaciones pul
Espesor de la nieve No disponible.
UV 7 de una escala de 12
Polen 1.00 de una escala de 12
Calidad del aire No disponible.
Flu Activity No disponible.
SPECI KCSG 021618Z 28007KT 10SM SCT023 BKN031 BKN038 29/22 A3005 RMK AO2

More Conditions Fewer Conditions

10-Day Weather Forecast

×

Almanac

Astronomía

Jul. 02, 2015 Salida Puesta
Hora real
Crepúsculo civil
Crepúsculo náutico
Crepúsculo astronómico
Luna
Horas de luz
Horas de luz
Tomorrow will be .
, % of the Moon is Illuminated

Extremos de hoy

Máximos del estado Bajos del estado

Community

WunderPhotos

Upload Photos

1,834,496 ¡fotos cargadas!

WunderBlogs® & News

Nearby

Calidad del aire

  Calidad del aire Índice AQ Contaminante
Not available.

Grosos de nieve

Estación Profundido Altura

Actividad de terremotos

Ciudad Distance Mag. Tiempo y dato
Magnitud mínima muestra es 2,5.

Temperaturas de aguas costeras

Lugar Temperatura

Stations

Estaciones meteorológicas cercanas

Ubicación de la estación Temp. Vientos helados Punto de rocío Humedad Viento Precip. Alt Actualizado Tipo